Pagrindinis puslapis
METAR-TAF:

METAR-TAF

Oro uostai :

Kokosų, Australija

platuma: 12-11S, ilguma: 096-49E, Aukštis: 3 m

Dabartinis oras

Ataskaita buvo paskelbta 36 minutes, ne 12:00 UTC
Vėjas 11 kt iš Rytų/Pietryčių
Temperatūra 27°C
Drėgmė 79%
Slėgis 1013 hPa
Matomumas 10 km arba daugiau
Išsisklaidę debesys ne aukštis 1800 ft
Išsisklaidę debesys ne aukštis 2900 ft
Apsiniaukę ne aukštis 3600 ft

METAR: YPCC 151200Z AUTO 11011KT 9999 // SCT018 SCT029 OVC036 27/23 Q1013

Laikas: 19:06 (12:36 UTC)

Prognozė

Ataskaita buvo paskelbta 1 valandą ir 21 minutes, ne 11:15 UTC
Prognozė galioja nuo 15 metu 12 UTC su 16 metu 12 UTC
Vėjas 14 kt iš Rytų/Pietryčių
Matomumas 10 km arba daugiau
Išsisklaidę debesys ne aukštis 2000 ft
Su prošvaistėmis ne aukštis 3500 ft

TAF: YPCC 151115Z 1512/1612 12014KT 9999 SCT020 BKN035

Orai ataskaitas ir orų prognozės (METAR, TAF).

turimą stotys yra geltonos ir raudonos taškus žemėlapyje.

Perkelti pele per norėdami pamatyti stoties vardą.

Tada spustelėkite, norėdami matyti oro stebėjimo ir prognozės.

Norėdami pakeisti žemėlapį: spustelėkite ant žalios mygtukų su juodo kryžiaus žemyn,; žalią mygtuką su brūkšneliu, jei norite nutolinti; arba žalių rodyklių gretimoms žemėlapius.


METAR-TAF: